الصفحة الرئيسية
METAR-TAF:

METAR-TAF

مطار :

ماليه, جزر المالديف

دائرة عرض: 04-12N, خط طول: 073-32E, ارتفاع: 2 متر

مراقبة الطقس الحالي

تاريخ ووقت الإصدار 43 دقيقة قبل الساعة 01:00UTC
ريح 6 عقدة من الشمال
درجة الحرارة 28°درجة مئوية
الرطوبة 84%
ضغط 1010 hPa
الرؤية 10 كم أو أكثر
غيوم قليلة على ارتفاع 1800 قدم, مزن ركامية عمودية.
غيوم مفككة على ارتفاع 28000 قدم

METAR: VRMM 190100Z 01006KT 9999 FEW018TCU BKN280 28/25 Q1010 NOSIG

زمن: 06:43 (01:43 UTC)

توقعات

تاريخ ووقت الإصدار 2ساعات و 43 دقيقة قبل الساعة 23:00UTC
التوقعات صالحة من19 الساعة 00 UTC إلى 20 الساعة 06 UTC
ريح 7 عقدة من الشمال
الرؤية 10 كم أو أكثر
غيوم قليلة على ارتفاع 1800 قدم
مؤقت
من 19 الساعة 00 UTC إلى 19 الساعة 06 UTC
غيوم قليلة على ارتفاع 1900 قدم, مزنة ركامية.

TAF: VRMM 182300Z 1900/2006 35007KT 9999 FEW018 TEMPO 1900/1906 FEW019CB

أرصاد الطقس والتوقعات من أكثر من 4000 مطار (تقارير الطقس للمطار METAR والتنبؤ بالطقس بالمطارTAF).

المحطات المتاحة هي النقط الصفراء والحمراء على الخريطة.

حرك المؤشر فوق النقطة لمعرفة اسم المحطة.

ثم انقر لمعرفة أرصاد وتوقعات الطقس.

لتغيير الخارطة: اضغط على الأزرار الخضراء مع رمز الصليب الأسود للتكبير. على الزر الأخضر مع شرطة للتصغير، أو على الأسهم الخضراء للخرائط المجاورة.


METAR-TAF: